sensor_id;sensor_type;location;lat;lon;timestamp;pressure;altitude;pressure_sealevel;temperature
28803;BMP280;15949;55.656;37.422;2023-02-19T00:03:40;97836.00;;;-7.97
28803;BMP280;15949;55.656;37.422;2023-02-19T00:08:46;97834.28;;;-7.92
28803;BMP280;15949;55.656;37.422;2023-02-19T00:13:53;97827.47;;;-7.91
28803;BMP280;15949;55.656;37.422;2023-02-19T00:19:02;97817.88;;;-7.89
28803;BMP280;15949;55.656;37.422;2023-02-19T00:24:10;97800.88;;;-7.99
28803;BMP280;15949;55.656;37.422;2023-02-19T00:29:19;97799.88;;;-7.98
28803;BMP280;15949;55.656;37.422;2023-02-19T00:34:25;97810.03;;;-7.93
28803;BMP280;15949;55.656;37.422;2023-02-19T00:39:30;97791.31;;;-7.92
28803;BMP280;15949;55.656;37.422;2023-02-19T00:44:36;97783.94;;;-7.98
28803;BMP280;15949;55.656;37.422;2023-02-19T00:49:42;97782.38;;;-8.04
28803;BMP280;15949;55.656;37.422;2023-02-19T00:54:47;97780.34;;;-8.07
28803;BMP280;15949;55.656;37.422;2023-02-19T00:59:53;97758.31;;;-8.12
28803;BMP280;15949;55.656;37.422;2023-02-19T01:04:59;97765.19;;;-8.07
28803;BMP280;15949;55.656;37.422;2023-02-19T01:10:05;97761.13;;;-8.08
28803;BMP280;15949;55.656;37.422;2023-02-19T01:15:11;97748.25;;;-8.07
28803;BMP280;15949;55.656;37.422;2023-02-19T01:20:17;97746.25;;;-8.05
28803;BMP280;15949;55.656;37.422;2023-02-19T01:25:22;97734.59;;;-8.06
28803;BMP280;15949;55.656;37.422;2023-02-19T01:30:28;97729.09;;;-8.03
28803;BMP280;15949;55.656;37.422;2023-02-19T01:35:37;97733.03;;;-8.12
28803;BMP280;15949;55.656;37.422;2023-02-19T01:40:43;97734.00;;;-8.18
28803;BMP280;15949;55.656;37.422;2023-02-19T01:45:49;97740.63;;;-8.12
28803;BMP280;15949;55.656;37.422;2023-02-19T01:56:07;97725.69;;;-8.13
28803;BMP280;15949;55.656;37.422;2023-02-19T02:01:13;97730.00;;;-8.14
28803;BMP280;15949;55.656;37.422;2023-02-19T02:06:23;97729.50;;;-8.16
28803;BMP280;15949;55.656;37.422;2023-02-19T02:11:29;97720.63;;;-8.18
28803;BMP280;15949;55.656;37.422;2023-02-19T02:16:49;97725.91;;;-8.25
28803;BMP280;15949;55.656;37.422;2023-02-19T02:22:08;97718.81;;;-8.23
28803;BMP280;15949;55.656;37.422;2023-02-19T02:38:01;97713.31;;;-8.20
28803;BMP280;15949;55.656;37.422;2023-02-19T02:43:07;97717.59;;;-8.20
28803;BMP280;15949;55.656;37.422;2023-02-19T02:48:23;97716.28;;;-8.23
28803;BMP280;15949;55.656;37.422;2023-02-19T02:59:06;97703.16;;;-8.25
28803;BMP280;15949;55.656;37.422;2023-02-19T03:10:40;97692.31;;;-8.26
28803;BMP280;15949;55.656;37.422;2023-02-19T03:15:51;97697.56;;;-8.27
28803;BMP280;15949;55.656;37.422;2023-02-19T03:21:18;97687.00;;;-8.24
28803;BMP280;15949;55.656;37.422;2023-02-19T03:26:26;97690.31;;;-8.18
28803;BMP280;15949;55.656;37.422;2023-02-19T03:31:33;97681.94;;;-8.24
28803;BMP280;15949;55.656;37.422;2023-02-19T03:36:45;97674.38;;;-8.19
28803;BMP280;15949;55.656;37.422;2023-02-19T03:42:01;97669.84;;;-8.22
28803;BMP280;15949;55.656;37.422;2023-02-19T03:47:28;97681.94;;;-8.24
28803;BMP280;15949;55.656;37.422;2023-02-19T03:52:38;97677.34;;;-8.27
28803;BMP280;15949;55.656;37.422;2023-02-19T04:03:04;97662.97;;;-8.27
28803;BMP280;15949;55.656;37.422;2023-02-19T04:08:17;97654.16;;;-8.24
28803;BMP280;15949;55.656;37.422;2023-02-19T04:13:34;97656.13;;;-8.31
28803;BMP280;15949;55.656;37.422;2023-02-19T04:18:43;97653.09;;;-8.28
28803;BMP280;15949;55.656;37.422;2023-02-19T04:23:49;97658.91;;;-8.28
28803;BMP280;15949;55.656;37.422;2023-02-19T04:28:55;97654.09;;;-8.34
28803;BMP280;15949;55.656;37.422;2023-02-19T04:34:02;97656.34;;;-8.33
28803;BMP280;15949;55.656;37.422;2023-02-19T04:39:08;97656.38;;;-8.28
28803;BMP280;15949;55.656;37.422;2023-02-19T04:44:14;97653.16;;;-8.23
28803;BMP280;15949;55.656;37.422;2023-02-19T04:49:20;97656.44;;;-8.23
28803;BMP280;15949;55.656;37.422;2023-02-19T04:54:25;97647.59;;;-8.25
28803;BMP280;15949;55.656;37.422;2023-02-19T04:59:31;97639.94;;;-8.35
28803;BMP280;15949;55.656;37.422;2023-02-19T05:04:37;97639.19;;;-8.36
28803;BMP280;15949;55.656;37.422;2023-02-19T05:09:43;97631.84;;;-8.37
28803;BMP280;15949;55.656;37.422;2023-02-19T05:14:48;97627.34;;;-8.30
28803;BMP280;15949;55.656;37.422;2023-02-19T05:19:54;97630.09;;;-8.32
28803;BMP280;15949;55.656;37.422;2023-02-19T05:25:00;97621.00;;;-8.38
28803;BMP280;15949;55.656;37.422;2023-02-19T05:30:06;97605.78;;;-8.43
28803;BMP280;15949;55.656;37.422;2023-02-19T05:35:12;97604.06;;;-8.37
28803;BMP280;15949;55.656;37.422;2023-02-19T05:40:17;97604.13;;;-8.27
28803;BMP280;15949;55.656;37.422;2023-02-19T05:45:23;97607.69;;;-8.23
28803;BMP280;15949;55.656;37.422;2023-02-19T05:50:31;97612.00;;;-8.18
28803;BMP280;15949;55.656;37.422;2023-02-19T05:55:37;97611.09;;;-8.07
28803;BMP280;15949;55.656;37.422;2023-02-19T06:00:43;97616.19;;;-7.97
28803;BMP280;15949;55.656;37.422;2023-02-19T06:05:49;97617.50;;;-7.85
28803;BMP280;15949;55.656;37.422;2023-02-19T06:10:54;97608.47;;;-7.75
28803;BMP280;15949;55.656;37.422;2023-02-19T06:16:04;97606.75;;;-7.60
28803;BMP280;15949;55.656;37.422;2023-02-19T06:21:10;97610.31;;;-7.46
28803;BMP280;15949;55.656;37.422;2023-02-19T06:26:19;97604.25;;;-7.45
28803;BMP280;15949;55.656;37.422;2023-02-19T06:31:25;97613.13;;;-7.42
28803;BMP280;15949;55.656;37.422;2023-02-19T06:36:31;97610.34;;;-7.35
28803;BMP280;15949;55.656;37.422;2023-02-19T06:41:36;97591.66;;;-7.24
28803;BMP280;15949;55.656;37.422;2023-02-19T06:46:42;97593.69;;;-7.16
28803;BMP280;15949;55.656;37.422;2023-02-19T06:51:48;97586.59;;;-7.19
28803;BMP280;15949;55.656;37.422;2023-02-19T06:56:54;97588.38;;;-7.20
28803;BMP280;15949;55.656;37.422;2023-02-19T07:02:03;97574.97;;;-7.15
28803;BMP280;15949;55.656;37.422;2023-02-19T07:07:10;97568.13;;;-7.35
28803;BMP280;15949;55.656;37.422;2023-02-19T07:12:16;97566.59;;;-7.26
28803;BMP280;15949;55.656;37.422;2023-02-19T07:17:22;97560.03;;;-7.27
28803;BMP280;15949;55.656;37.422;2023-02-19T07:22:28;97550.19;;;-7.13
28803;BMP280;15949;55.656;37.422;2023-02-19T07:27:34;97560.56;;;-6.99
28803;BMP280;15949;55.656;37.422;2023-02-19T07:32:40;97560.53;;;-6.79
28803;BMP280;15949;55.656;37.422;2023-02-19T07:37:46;97553.47;;;-6.82
28803;BMP280;15949;55.656;37.422;2023-02-19T07:42:52;97555.00;;;-6.81
28803;BMP280;15949;55.656;37.422;2023-02-19T07:47:58;97552.47;;;-6.76
28803;BMP280;15949;55.656;37.422;2023-02-19T07:53:03;97546.81;;;-6.48
28803;BMP280;15949;55.656;37.422;2023-02-19T07:58:09;97538.97;;;-6.41
28803;BMP280;15949;55.656;37.422;2023-02-19T08:03:14;97538.16;;;-6.27
28803;BMP280;15949;55.656;37.422;2023-02-19T08:08:20;97535.53;;;-6.06
28803;BMP280;15949;55.656;37.422;2023-02-19T08:13:28;97533.94;;;-5.92
28803;BMP280;15949;55.656;37.422;2023-02-19T08:18:34;97527.13;;;-5.97
28803;BMP280;15949;55.656;37.422;2023-02-19T08:23:40;97525.38;;;-6.01
28803;BMP280;15949;55.656;37.422;2023-02-19T08:28:45;97528.22;;;-6.08
28803;BMP280;15949;55.656;37.422;2023-02-19T08:33:52;97522.41;;;-6.19
28803;BMP280;15949;55.656;37.422;2023-02-19T08:38:58;97518.78;;;-6.02
28803;BMP280;15949;55.656;37.422;2023-02-19T08:44:04;97519.38;;;-6.21
28803;BMP280;15949;55.656;37.422;2023-02-19T08:49:09;97515.31;;;-6.17
28803;BMP280;15949;55.656;37.422;2023-02-19T08:54:15;97499.81;;;-6.05
28803;BMP280;15949;55.656;37.422;2023-02-19T08:59:20;97503.59;;;-6.02
28803;BMP280;15949;55.656;37.422;2023-02-19T09:04:26;97502.38;;;-6.10
28803;BMP280;15949;55.656;37.422;2023-02-19T09:09:32;97504.31;;;-5.97
28803;BMP280;15949;55.656;37.422;2023-02-19T09:14:38;97493.13;;;-5.86
28803;BMP280;15949;55.656;37.422;2023-02-19T09:19:43;97475.09;;;-5.84
28803;BMP280;15949;55.656;37.422;2023-02-19T09:24:49;97478.19;;;-5.92
28803;BMP280;15949;55.656;37.422;2023-02-19T09:29:54;97482.13;;;-5.76
28803;BMP280;15949;55.656;37.422;2023-02-19T09:35:00;97476.00;;;-5.70
28803;BMP280;15949;55.656;37.422;2023-02-19T09:40:06;97479.28;;;-5.59
28803;BMP280;15949;55.656;37.422;2023-02-19T09:45:18;97474.66;;;-5.57
28803;BMP280;15949;55.656;37.422;2023-02-19T09:50:36;97468.00;;;-5.48
28803;BMP280;15949;55.656;37.422;2023-02-19T09:55:43;97462.28;;;-5.59
28803;BMP280;15949;55.656;37.422;2023-02-19T10:00:50;97461.22;;;-5.58
28803;BMP280;15949;55.656;37.422;2023-02-19T10:06:07;97458.84;;;-5.15
28803;BMP280;15949;55.656;37.422;2023-02-19T10:11:16;97458.91;;;-5.20
28803;BMP280;15949;55.656;37.422;2023-02-19T10:16:24;97459.06;;;-5.41
28803;BMP280;15949;55.656;37.422;2023-02-19T10:21:31;97457.56;;;-5.42
28803;BMP280;15949;55.656;37.422;2023-02-19T10:26:36;97446.78;;;-5.28
28803;BMP280;15949;55.656;37.422;2023-02-19T10:31:42;97456.41;;;-5.25
28803;BMP280;15949;55.656;37.422;2023-02-19T10:36:50;97446.56;;;-4.79
28803;BMP280;15949;55.656;37.422;2023-02-19T10:41:56;97448.28;;;-4.32
28803;BMP280;15949;55.656;37.422;2023-02-19T10:47:03;97450.13;;;-4.19
28803;BMP280;15949;55.656;37.422;2023-02-19T10:57:28;97429.50;;;-3.80
28803;BMP280;15949;55.656;37.422;2023-02-19T11:02:43;97434.94;;;-4.24
28803;BMP280;15949;55.656;37.422;2023-02-19T11:07:53;97434.31;;;-4.16
28803;BMP280;15949;55.656;37.422;2023-02-19T11:13:02;97430.25;;;-3.80
28803;BMP280;15949;55.656;37.422;2023-02-19T11:23:27;97435.34;;;-4.55
28803;BMP280;15949;55.656;37.422;2023-02-19T11:28:38;97427.00;;;-4.79
28803;BMP280;15949;55.656;37.422;2023-02-19T11:33:49;97426.69;;;-4.54
28803;BMP280;15949;55.656;37.422;2023-02-19T11:39:00;97415.31;;;-4.37
28803;BMP280;15949;55.656;37.422;2023-02-19T12:43:20;97417.13;;;-5.33
28803;BMP280;15949;55.656;37.422;2023-02-19T12:48:43;97419.34;;;-5.26
28803;BMP280;15949;55.656;37.422;2023-02-19T12:54:11;97418.41;;;-5.36
28803;BMP280;15949;55.656;37.422;2023-02-19T13:00:22;97428.34;;;-5.39
28803;BMP280;15949;55.656;37.422;2023-02-19T13:05:25;97426.59;;;-5.44
28803;BMP280;15949;55.656;37.422;2023-02-19T13:10:52;97427.34;;;-5.72
28803;BMP280;15949;55.656;37.422;2023-02-19T13:16:02;97427.94;;;-5.85
28803;BMP280;15949;55.656;37.422;2023-02-19T13:21:15;97433.31;;;-5.87
28803;BMP280;15949;55.656;37.422;2023-02-19T13:37:53;97419.91;;;-5.97
28803;BMP280;15949;55.656;37.422;2023-02-19T13:43:38;97423.97;;;-5.96
28803;BMP280;15949;55.656;37.422;2023-02-19T13:48:44;97427.31;;;-6.06
28803;BMP280;15949;55.656;37.422;2023-02-19T13:53:56;97421.53;;;-6.11
28803;BMP280;15949;55.656;37.422;2023-02-19T14:04:53;97407.38;;;-6.18
28803;BMP280;15949;55.656;37.422;2023-02-19T14:10:00;97392.72;;;-6.26
28803;BMP280;15949;55.656;37.422;2023-02-19T14:15:43;97404.13;;;-6.28
28803;BMP280;15949;55.656;37.422;2023-02-19T14:21:06;97406.47;;;-6.37
28803;BMP280;15949;55.656;37.422;2023-02-19T14:26:18;97408.78;;;-6.40
28803;BMP280;15949;55.656;37.422;2023-02-19T14:31:33;97396.38;;;-6.47
28803;BMP280;15949;55.656;37.422;2023-02-19T14:36:48;97393.94;;;-6.62
28803;BMP280;15949;55.656;37.422;2023-02-19T14:42:01;97389.69;;;-6.82
28803;BMP280;15949;55.656;37.422;2023-02-19T14:47:13;97384.13;;;-6.89
28803;BMP280;15949;55.656;37.422;2023-02-19T14:52:29;97387.47;;;-6.98
28803;BMP280;15949;55.656;37.422;2023-02-19T14:57:42;97377.59;;;-7.00
28803;BMP280;15949;55.656;37.422;2023-02-19T15:02:52;97377.34;;;-6.98
28803;BMP280;15949;55.656;37.422;2023-02-19T15:08:03;97375.81;;;-6.94
28803;BMP280;15949;55.656;37.422;2023-02-19T15:13:18;97380.84;;;-6.89
28803;BMP280;15949;55.656;37.422;2023-02-19T15:18:26;97372.22;;;-6.83
28803;BMP280;15949;55.656;37.422;2023-02-19T15:23:32;97370.19;;;-6.76
28803;BMP280;15949;55.656;37.422;2023-02-19T15:28:38;97374.72;;;-6.73
28803;BMP280;15949;55.656;37.422;2023-02-19T15:33:49;97370.44;;;-6.78
28803;BMP280;15949;55.656;37.422;2023-02-19T15:38:57;97354.25;;;-6.77
28803;BMP280;15949;55.656;37.422;2023-02-19T15:44:30;97353.16;;;-6.71
28803;BMP280;15949;55.656;37.422;2023-02-19T15:49:45;97352.16;;;-6.70
28803;BMP280;15949;55.656;37.422;2023-02-19T15:55:39;97352.38;;;-6.66
28803;BMP280;15949;55.656;37.422;2023-02-19T16:00:53;97352.94;;;-6.74
28803;BMP280;15949;55.656;37.422;2023-02-19T16:06:14;97340.31;;;-6.79
28803;BMP280;15949;55.656;37.422;2023-02-19T16:16:34;97353.69;;;-6.69
28803;BMP280;15949;55.656;37.422;2023-02-19T16:21:42;97356.47;;;-6.70
28803;BMP280;15949;55.656;37.422;2023-02-19T16:26:48;97349.91;;;-6.71
28803;BMP280;15949;55.656;37.422;2023-02-19T16:32:02;97344.56;;;-6.70
28803;BMP280;15949;55.656;37.422;2023-02-19T16:37:37;97341.34;;;-6.80
28803;BMP280;15949;55.656;37.422;2023-02-19T16:47:59;97337.06;;;-6.90
28803;BMP280;15949;55.656;37.422;2023-02-19T16:53:05;97343.88;;;-6.85
28803;BMP280;15949;55.656;37.422;2023-02-19T16:58:10;97347.94;;;-6.89
28803;BMP280;15949;55.656;37.422;2023-02-19T17:03:21;97337.31;;;-6.86
28803;BMP280;15949;55.656;37.422;2023-02-19T17:08:36;97345.41;;;-6.89
28803;BMP280;15949;55.656;37.422;2023-02-19T17:13:43;97341.84;;;-6.88
28803;BMP280;15949;55.656;37.422;2023-02-19T17:18:50;97342.88;;;-6.84
28803;BMP280;15949;55.656;37.422;2023-02-19T17:23:56;97334.25;;;-6.83
28803;BMP280;15949;55.656;37.422;2023-02-19T17:29:04;97339.31;;;-6.88
28803;BMP280;15949;55.656;37.422;2023-02-19T17:34:10;97325.91;;;-6.84
28803;BMP280;15949;55.656;37.422;2023-02-19T17:39:15;97323.66;;;-6.90
28803;BMP280;15949;55.656;37.422;2023-02-19T17:44:21;97323.63;;;-6.80
28803;BMP280;15949;55.656;37.422;2023-02-19T17:49:27;97325.13;;;-6.79
28803;BMP280;15949;55.656;37.422;2023-02-19T17:54:32;97316.75;;;-6.75
28803;BMP280;15949;55.656;37.422;2023-02-19T17:59:38;97314.00;;;-6.78
28803;BMP280;15949;55.656;37.422;2023-02-19T18:04:44;97322.06;;;-6.71
28803;BMP280;15949;55.656;37.422;2023-02-19T18:09:49;97312.41;;;-6.69
28803;BMP280;15949;55.656;37.422;2023-02-19T18:14:55;97318.50;;;-6.75
28803;BMP280;15949;55.656;37.422;2023-02-19T18:20:02;97308.94;;;-6.78
28803;BMP280;15949;55.656;37.422;2023-02-19T18:25:09;97306.41;;;-6.78
28803;BMP280;15949;55.656;37.422;2023-02-19T18:30:17;97309.44;;;-6.76
28803;BMP280;15949;55.656;37.422;2023-02-19T18:35:23;97308.94;;;-6.83
28803;BMP280;15949;55.656;37.422;2023-02-19T18:40:29;97307.69;;;-6.81
28803;BMP280;15949;55.656;37.422;2023-02-19T18:45:34;97300.84;;;-6.80
28803;BMP280;15949;55.656;37.422;2023-02-19T18:50:41;97299.34;;;-6.81
28803;BMP280;15949;55.656;37.422;2023-02-19T18:55:47;97305.91;;;-6.80
28803;BMP280;15949;55.656;37.422;2023-02-19T19:00:52;97301.34;;;-6.83
28803;BMP280;15949;55.656;37.422;2023-02-19T19:05:58;97306.66;;;-6.80
28803;BMP280;15949;55.656;37.422;2023-02-19T19:11:04;97298.06;;;-6.84
28803;BMP280;15949;55.656;37.422;2023-02-19T19:16:09;97293.75;;;-6.83
28803;BMP280;15949;55.656;37.422;2023-02-19T19:21:15;97292.25;;;-6.84
28803;BMP280;15949;55.656;37.422;2023-02-19T19:26:21;97289.22;;;-6.86
28803;BMP280;15949;55.656;37.422;2023-02-19T19:31:33;97291.22;;;-6.88
28803;BMP280;15949;55.656;37.422;2023-02-19T19:36:39;97294.03;;;-6.85
28803;BMP280;15949;55.656;37.422;2023-02-19T19:41:44;97299.09;;;-6.85
28803;BMP280;15949;55.656;37.422;2023-02-19T19:46:50;97289.69;;;-6.79
28803;BMP280;15949;55.656;37.422;2023-02-19T19:51:56;97302.84;;;-6.77
28803;BMP280;15949;55.656;37.422;2023-02-19T19:57:05;97300.53;;;-6.74
28803;BMP280;15949;55.656;37.422;2023-02-19T20:02:10;97295.50;;;-6.79
28803;BMP280;15949;55.656;37.422;2023-02-19T20:07:16;97289.19;;;-6.76
28803;BMP280;15949;55.656;37.422;2023-02-19T20:12:21;97295.22;;;-6.72
28803;BMP280;15949;55.656;37.422;2023-02-19T20:17:27;97291.63;;;-6.66
28803;BMP280;15949;55.656;37.422;2023-02-19T20:22:33;97284.03;;;-6.61
28803;BMP280;15949;55.656;37.422;2023-02-19T20:27:41;97284.50;;;-6.54
28803;BMP280;15949;55.656;37.422;2023-02-19T20:32:46;97290.53;;;-6.50
28803;BMP280;15949;55.656;37.422;2023-02-19T20:37:52;97283.41;;;-6.48
28803;BMP280;15949;55.656;37.422;2023-02-19T20:42:58;97283.41;;;-6.48
28803;BMP280;15949;55.656;37.422;2023-02-19T20:48:05;97279.59;;;-6.45
28803;BMP280;15949;55.656;37.422;2023-02-19T20:53:10;97282.91;;;-6.40
28803;BMP280;15949;55.656;37.422;2023-02-19T20:58:16;97281.84;;;-6.39
28803;BMP280;15949;55.656;37.422;2023-02-19T21:03:22;97278.09;;;-6.41
28803;BMP280;15949;55.656;37.422;2023-02-19T21:08:27;97286.16;;;-6.39
28803;BMP280;15949;55.656;37.422;2023-02-19T21:13:33;97276.03;;;-6.39
28803;BMP280;15949;55.656;37.422;2023-02-19T21:18:39;97284.63;;;-6.35
28803;BMP280;15949;55.656;37.422;2023-02-19T21:23:45;97280.59;;;-6.36
28803;BMP280;15949;55.656;37.422;2023-02-19T21:28:50;97277.75;;;-6.35
28803;BMP280;15949;55.656;37.422;2023-02-19T21:33:56;97283.59;;;-6.34
28803;BMP280;15949;55.656;37.422;2023-02-19T21:39:03;97276.78;;;-6.39
28803;BMP280;15949;55.656;37.422;2023-02-19T21:44:09;97281.84;;;-6.39
28803;BMP280;15949;55.656;37.422;2023-02-19T21:49:15;97287.16;;;-6.35
28803;BMP280;15949;55.656;37.422;2023-02-19T21:54:22;97291.47;;;-6.36
28803;BMP280;15949;55.656;37.422;2023-02-19T21:59:31;97282.31;;;-6.32
28803;BMP280;15949;55.656;37.422;2023-02-19T22:04:36;97286.88;;;-6.34
28803;BMP280;15949;55.656;37.422;2023-02-19T22:09:42;97274.75;;;-6.37
28803;BMP280;15949;55.656;37.422;2023-02-19T22:14:48;97282.91;;;-6.40
28803;BMP280;15949;55.656;37.422;2023-02-19T22:19:53;97279.84;;;-6.42
28803;BMP280;15949;55.656;37.422;2023-02-19T22:24:59;97274.00;;;-6.37
28803;BMP280;15949;55.656;37.422;2023-02-19T22:30:05;97274.72;;;-6.32
28803;BMP280;15949;55.656;37.422;2023-02-19T22:35:10;97272.44;;;-6.33
28803;BMP280;15949;55.656;37.422;2023-02-19T22:40:16;97274.72;;;-6.32
28803;BMP280;15949;55.656;37.422;2023-02-19T22:45:22;97271.09;;;-6.26
28803;BMP280;15949;55.656;37.422;2023-02-19T22:50:28;97274.69;;;-6.27
28803;BMP280;15949;55.656;37.422;2023-02-19T22:55:34;97272.63;;;-6.25
28803;BMP280;15949;55.656;37.422;2023-02-19T23:00:40;97269.81;;;-6.23
28803;BMP280;15949;55.656;37.422;2023-02-19T23:05:46;97282.28;;;-6.27
28803;BMP280;15949;55.656;37.422;2023-02-19T23:10:52;97280.22;;;-6.25
28803;BMP280;15949;55.656;37.422;2023-02-19T23:15:58;97280.22;;;-6.25
28803;BMP280;15949;55.656;37.422;2023-02-19T23:21:04;97288.56;;;-6.24
28803;BMP280;15949;55.656;37.422;2023-02-19T23:26:10;97290.84;;;-6.23
28803;BMP280;15949;55.656;37.422;2023-02-19T23:31:16;97291.38;;;-6.26
28803;BMP280;15949;55.656;37.422;2023-02-19T23:36:21;97285.81;;;-6.28
28803;BMP280;15949;55.656;37.422;2023-02-19T23:41:28;97287.06;;;-6.25
28803;BMP280;15949;55.656;37.422;2023-02-19T23:46:33;97283.50;;;-6.24
28803;BMP280;15949;55.656;37.422;2023-02-19T23:51:39;97296.00;;;-6.33
28803;BMP280;15949;55.656;37.422;2023-02-19T23:56:45;97300.00;;;-6.27
